Latest Weather Observations for Adele Island

IDW60801

Issued at 3:32 pm WST Monday 25 May 2015 (issued every 30 minutes, with the page automatically refreshed every 10 minutes)

About weather observations | Map of weather stations | Latest weather observations for WA | Other Formats
Station Details ID: 200735 Name: ADELE ISLAND Lat: -15.51 Lon: 123.16 Height: 4.6 m
Data from the previous 72 hours. | See also: Recent months for locations in Western Australia
Date/Time
WST
Temp
°C
App
Temp
°C
Dew
Point
Rel
Hum
%
Delta-T
°C
Wind Press
QNH
hPa
Press
MSL
hPa
Rain
since 9 am
mm
Dir
 
Spd
km/h
Gust
km/h
Spd
kts
Gust
kts
25/03:30pm 28.0 - - - - NE 26 32 14 17 1014.0 1013.9 -
25/03:00pm 28.1 - - - - NE 26 32 14 17 1014.0 1013.9 -
25/02:30pm 28.3 - - - - NE 26 33 14 18 1014.0 1013.9 -
25/02:00pm 28.2 - - - - ENE 24 30 13 16 1014.2 1014.1 -
25/01:30pm 28.2 - - - - NE 26 32 14 17 1014.3 1014.2 -
25/01:00pm 28.0 - - - - ENE 24 30 13 16 1014.7 1014.6 -
25/12:30pm 28.8 - - - - NE 28 35 15 19 1014.8 1014.7 -
25/12:00pm 28.5 - - - - ENE 28 35 15 19 1015.0 1014.9 -
25/11:30am 28.5 - - - - NE 30 39 16 21 1015.3 1015.2 -
25/11:00am 28.5 - - - - NE 32 37 17 20 1015.6 1015.5 -
25/10:30am 28.4 - - - - ENE 28 35 15 19 1015.9 1015.8 -
25/10:00am 28.6 - - - - NE 30 39 16 21 1016.2 1016.1 -
25/09:30am 28.5 - - - - NE 32 37 17 20 1016.3 1016.2 -
25/09:00am 28.3 - - - - NE 30 37 16 20 1016.4 1016.3 -
25/08:30am 27.9 - - - - NE 26 32 14 17 1016.4 1016.3 -
25/08:00am 27.5 - - - - NE 24 32 13 17 1016.7 1016.6 -
25/07:30am 27.3 - - - - NNE 24 28 13 15 1016.5 1016.4 -
25/07:00am 27.1 - - - - NE 28 35 15 19 1016.3 1016.2 -
25/06:30am 26.7 - - - - NNE 28 32 15 17 1015.8 1015.7 -
25/06:00am 26.7 - - - - NNE 28 33 15 18 1015.5 1015.4 -
25/05:30am 26.8 - - - - NE 30 35 16 19 1015.1 1015.0 -
25/05:00am 27.0 - - - - NE 28 32 15 17 1014.7 1014.6 -
25/04:30am 27.0 - - - - NE 26 32 14 17 1014.5 1014.4 -
25/04:00am 27.1 - - - - NE 24 30 13 16 1014.4 1014.3 -
25/03:30am 27.0 - - - - NNE 24 30 13 16 1014.3 1014.2 -
25/03:00am 27.0 - - - - NNE 24 28 13 15 1014.2 1014.1 -
25/02:30am 27.1 - - - - NNE 24 30 13 16 1014.3 1014.2 -
25/02:00am 27.1 - - - - NNE 24 28 13 15 1014.4 1014.3 -
25/01:30am 27.0 - - - - NNE 26 30 14 16 1014.4 1014.3 -
25/01:00am 26.9 - - - - NNE 26 30 14 16 1014.7 1014.6 -
25/12:30am 26.9 - - - - NNE 24 28 13 15 1014.8 1014.7 -
25/12:00am 27.0 - - - - NNE 20 24 11 13 1014.9 1014.8 -
 
Date/Time
WST
Temp
°C
App
Temp
°C
Dew
Point
Rel
Hum
%
Delta-T
°C
Wind Press
QNH
hPa
Press
MSL
hPa
Rain
since 9 am
mm
Dir
 
Spd
km/h
Gust
km/h
Spd
kts
Gust
kts
24/11:30pm 26.9 - - - - NNE 20 22 11 12 1015.0 1014.9 -
24/11:00pm 26.9 - - - - NNE 24 26 13 14 1015.1 1015.0 -
24/10:30pm 26.8 - - - - NNE 22 26 12 14 1015.2 1015.1 -
24/10:00pm 27.5 - - - - NNE 22 26 12 14 1015.4 1015.3 -
24/09:30pm 27.3 - - - - NNE 20 24 11 13 1015.6 1015.5 -
24/09:00pm 27.7 - - - - NNE 20 24 11 13 1015.8 1015.7 -
24/08:30pm 27.4 - - - - NNE 20 26 11 14 1015.8 1015.7 -
24/08:00pm 27.7 - - - - NNE 22 26 12 14 1015.7 1015.6 -
24/07:30pm 27.7 - - - - NE 22 26 12 14 1015.5 1015.4 -
24/07:00pm 27.6 - - - - NE 20 26 11 14 1015.3 1015.2 -
24/06:30pm 27.6 - - - - NE 20 26 11 14 1014.9 1014.8 -
24/06:00pm 27.5 - - - - NNE 22 28 12 15 1014.5 1014.4 -
24/05:30pm 27.6 - - - - NE 22 28 12 15 1014.1 1014.0 -
24/05:00pm 27.9 - - - - NE 22 26 12 14 1013.9 1013.8 -
24/04:30pm 28.0 - - - - NE 20 26 11 14 1013.8 1013.7 -
24/04:00pm 28.0 - - - - NE 20 28 11 15 1013.6 1013.5 -
24/03:30pm 28.2 - - - - NE 24 30 13 16 1013.4 1013.3 -
24/03:00pm 28.3 - - - - NE 24 28 13 15 1013.5 1013.4 -
24/02:30pm 28.4 - - - - ENE 22 28 12 15 1013.2 1013.1 -
24/02:00pm 28.7 - - - - ENE 24 30 13 16 1013.2 1013.1 -
24/01:30pm 28.4 - - - - ENE 22 30 12 16 1013.3 1013.2 -
24/01:00pm 28.6 - - - - ENE 24 30 13 16 1013.6 1013.5 -
24/12:30pm 29.0 - - - - ENE 26 32 14 17 1013.8 1013.7 -
24/12:00pm 28.5 - - - - ENE 24 30 13 16 1014.5 1014.4 -
24/11:30am 28.9 - - - - ENE 20 26 11 14 1014.8 1014.7 -
24/11:00am 28.6 - - - - ENE 20 26 11 14 1015.0 1014.9 -
24/10:30am 28.8 - - - - ENE 20 26 11 14 1015.4 1015.3 -
24/10:00am 28.4 - - - - NE 20 26 11 14 1015.4 1015.3 -
24/09:30am 28.7 - - - - ENE 19 24 10 13 1015.6 1015.5 -
24/09:00am 28.4 - - - - ENE 19 24 10 13 1015.5 1015.4 -
24/08:30am 27.5 - - - - NE 20 28 11 15 1015.5 1015.4 -
24/08:00am 27.5 - - - - NE 20 26 11 14 1015.4 1015.3 -
24/07:30am 27.5 - - - - NNE 19 24 10 13 1015.2 1015.1 -
24/07:00am 27.3 - - - - NE 19 22 10 12 1015.0 1014.9 -
24/06:30am 27.3 - - - - NE 20 24 11 13 1014.9 1014.8 -
24/06:00am 27.2 - - - - NE 19 24 10 13 1014.5 1014.4 -
24/05:30am 27.3 - - - - NE 17 20 9 11 1014.3 1014.2 -
24/05:00am 27.2 - - - - NE 15 20 8 11 1014.1 1014.0 -
24/04:30am 27.4 - - - - NE 17 20 9 11 1014.0 1013.9 -
24/04:00am 27.3 - - - - NE 15 19 8 10 1014.1 1014.0 -
24/03:30am 27.2 - - - - NE 13 17 7 9 1013.9 1013.8 -
24/03:00am 27.1 - - - - NE 15 17 8 9 1013.9 1013.8 -
24/02:30am 27.4 - - - - NNE 15 19 8 10 1013.8 1013.7 -
24/02:00am 27.4 - - - - NE 13 17 7 9 1013.9 1013.8 -
24/01:30am 27.4 - - - - NNE 13 15 7 8 1014.1 1014.0 -
24/01:00am 27.5 - - - - NE 11 13 6 7 1014.4 1014.3 -
24/12:30am 27.3 - - - - NE 9 11 5 6 1014.6 1014.5 -
24/12:00am 27.4 - - - - NE 13 15 7 8 1014.6 1014.5 -
 
Date/Time
WST
Temp
°C
App
Temp
°C
Dew
Point
Rel
Hum
%
Delta-T
°C
Wind Press
QNH
hPa
Press
MSL
hPa
Rain
since 9 am
mm
Dir
 
Spd
km/h
Gust
km/h
Spd
kts
Gust
kts
23/11:30pm 27.4 - - - - NNE 11 15 6 8 1014.6 1014.5 -
23/11:00pm 27.4 - - - - NNE 13 15 7 8 1014.7 1014.6 -
23/10:30pm 27.4 - - - - NNE 15 17 8 9 1014.6 1014.5 -
23/10:00pm 27.7 - - - - NNE 15 17 8 9 1014.7 1014.6 -
23/09:30pm 27.6 - - - - NNE 15 17 8 9 1014.6 1014.5 -
23/09:00pm 27.8 - - - - NNE 15 17 8 9 1014.6 1014.5 -
23/08:30pm 27.7 - - - - NNE 17 19 9 10 1014.7 1014.6 -
23/08:00pm 28.0 - - - - NNE 20 22 11 12 1014.4 1014.3 -
23/07:30pm 27.9 - - - - NNE 15 19 8 10 1014.4 1014.3 -
23/07:00pm 27.5 - - - - NNE 13 17 7 9 1014.4 1014.3 -
23/06:30pm 27.8 - - - - NNE 13 17 7 9 1014.4 1014.3 -
23/06:00pm 27.9 - - - - NE 15 20 8 11 1014.2 1014.1 -
23/05:30pm 28.0 - - - - NE 19 24 10 13 1014.1 1014.0 -
23/05:00pm 28.2 - - - - NE 19 22 10 12 1014.0 1013.9 -
23/04:30pm 28.4 - - - - NE 17 20 9 11 1014.0 1013.9 -
23/04:00pm 28.6 - - - - NE 19 26 10 14 1013.8 1013.7 -
23/03:30pm 28.7 - - - - NE 17 22 9 12 1013.5 1013.4 -
23/03:00pm 28.8 - - - - NE 19 22 10 12 1013.4 1013.3 -
23/02:30pm 29.3 - - - - NE 17 20 9 11 1013.6 1013.5 -
23/02:00pm 28.9 - - - - NE 17 22 9 12 1013.8 1013.7 -
23/01:30pm 28.9 - - - - NE 22 28 12 15 1013.7 1013.6 -
23/01:00pm 28.7 - - - - NE 22 26 12 14 1014.1 1014.0 -
23/12:30pm 28.6 - - - - NNE 20 26 11 14 1014.5 1014.4 -
23/12:00pm 29.0 - - - - NNE 19 24 10 13 1014.9 1014.8 -
23/11:30am 28.9 - - - - NE 19 24 10 13 1015.5 1015.4 -
23/11:00am 29.4 - - - - NE 19 24 10 13 1015.8 1015.7 -
23/10:30am 29.2 - - - - ENE 20 24 11 13 1016.1 1016.0 -
23/10:00am 28.8 - - - - ENE 19 22 10 12 1016.2 1016.1 -
23/09:30am 28.4 - - - - NE 17 20 9 11 1016.3 1016.2 -
23/09:00am 28.6 - - - - NE 13 17 7 9 1016.6 1016.5 -
23/08:30am 28.1 - - - - NE 13 17 7 9 1016.6 1016.5 -
23/08:00am 28.0 - - - - NE 13 15 7 8 1016.4 1016.3 -
23/07:30am 27.9 - - - - NE 11 13 6 7 1016.2 1016.1 -
23/07:00am 27.7 - - - - NNE 11 15 6 8 1016.1 1016.0 -
23/06:30am 27.6 - - - - NNE 11 13 6 7 1015.7 1015.6 -
23/06:00am 27.4 - - - - NNE 11 13 6 7 1015.4 1015.3 -
23/05:30am 27.4 - - - - NNE 13 15 7 8 1015.1 1015.0 -
23/05:00am 27.4 - - - - NNE 13 15 7 8 1014.9 1014.8 -
23/04:30am 27.4 - - - - NNE 13 17 7 9 1014.7 1014.6 -
23/04:00am 27.5 - - - - NNE 15 17 8 9 1014.9 1014.8 -
23/03:30am 27.5 - - - - NNE 15 17 8 9 1014.9 1014.8 -
23/03:00am 27.5 - - - - NNE 19 20 10 11 1014.7 1014.6 -
23/02:30am 27.5 - - - - NNE 17 20 9 11 1014.6 1014.5 -
23/02:00am 27.7 - - - - N 15 19 8 10 1014.8 1014.7 -
23/01:30am 27.6 - - - - N 13 17 7 9 1015.0 1014.9 -
23/01:00am 27.5 - - - - N 11 15 6 8 1015.1 1015.0 -
23/12:30am 27.7 - - - - N 13 15 7 8 1015.0 1014.9 -
23/12:00am 27.5 - - - - NNW 13 13 7 7 1015.1 1015.0 -
 
Date/Time
WST
Temp
°C
App
Temp
°C
Dew
Point
Rel
Hum
%
Delta-T
°C
Wind Press
QNH
hPa
Press
MSL
hPa
Rain
since 9 am
mm
Dir
 
Spd
km/h
Gust
km/h
Spd
kts
Gust
kts
22/11:30pm 27.5 - - - - N 11 13 6 7 1015.3 1015.2 -
22/11:00pm 27.5 - - - - N 9 11 5 6 1015.5 1015.4 -
22/10:30pm 27.4 - - - - N 2 11 1 6 1015.5 1015.4 -
22/10:00pm 27.4 - - - - CALM 0 0 0 0 1015.6 1015.5 -
22/09:30pm 27.5 - - - - CALM 0 0 0 0 1015.5 1015.4 -
22/09:00pm 27.6 - - - - CALM 0 2 0 1 1015.4 1015.3 -
22/08:30pm 27.7 - - - - N 7 9 4 5 1015.5 1015.4 -
22/08:00pm 27.8 - - - - N 7 9 4 5 1015.4 1015.3 -
22/07:30pm 27.5 - - - - N 7 9 4 5 1015.2 1015.1 -
22/07:00pm 28.0 - - - - N 7 9 4 5 1015.0 1014.9 -
22/06:30pm 27.8 - - - - NNE 6 7 3 4 1014.8 1014.7 -
22/06:00pm 28.2 - - - - N 7 11 4 6 1014.6 1014.5 -
22/05:30pm 28.3 - - - - N 9 11 5 6 1014.4 1014.3 -
22/05:00pm 28.4 - - - - N 11 13 6 7 1014.0 1013.9 -
22/04:30pm 28.3 - - - - N 15 17 8 9 1013.6 1013.5 -
22/04:00pm 28.5 - - - - N 17 20 9 11 1013.6 1013.5 -

Other Formats:

Comma delimited format used in spreadsheet applications
http://www.bom.gov.au/fwo/IDW60801/IDW60801.94210.axf

JavaScript Object Notation format (JSON) in row-major order
http://www.bom.gov.au/fwo/IDW60801/IDW60801.94210.json